createdAt,value
2022-08-30T00:03:49.399Z,3.67
2022-08-30T00:08:55.409Z,3.70
2022-08-30T00:14:04.582Z,3.70
2022-08-30T00:19:07.568Z,3.80
2022-08-30T00:24:13.668Z,3.90
2022-08-30T00:29:16.412Z,3.97
2022-08-30T00:34:23.131Z,3.83
2022-08-30T00:39:26.431Z,4.30
2022-08-30T00:44:29.398Z,4.13
2022-08-30T00:49:33.762Z,3.87
2022-08-30T00:54:42.437Z,4.20
2022-08-30T00:59:49.756Z,4.33
2022-08-30T01:04:53.159Z,4.30
2022-08-30T01:10:02.082Z,4.10
2022-08-30T01:15:06.995Z,4.17
2022-08-30T01:20:16.188Z,3.73
2022-08-30T01:25:25.605Z,3.90
2022-08-30T01:30:30.073Z,4.20
2022-08-30T01:35:43.455Z,3.73
2022-08-30T01:40:46.280Z,3.30
2022-08-30T01:45:52.056Z,2.97
2022-08-30T01:50:59.357Z,2.97
2022-08-30T01:56:10.240Z,2.80
2022-08-30T02:01:18.282Z,2.90
2022-08-30T02:06:21.435Z,3.27
2022-08-30T02:11:41.533Z,3.10
2022-08-30T02:16:48.643Z,3.13
2022-08-30T02:21:52.144Z,3.27
2022-08-30T02:26:54.997Z,2.60
2022-08-30T02:31:57.695Z,2.30
2022-08-30T02:37:01.104Z,2.10
2022-08-30T02:42:05.900Z,2.37
2022-08-30T02:47:08.924Z,1.87
2022-08-30T02:52:11.645Z,2.07
2022-08-30T02:57:20.086Z,2.53
2022-08-30T03:02:23.939Z,2.10
2022-08-30T03:07:27.648Z,2.60
2022-08-30T03:12:30.423Z,2.60
2022-08-30T03:17:33.794Z,2.60
2022-08-30T03:22:36.587Z,2.80
2022-08-30T03:27:39.844Z,2.90
2022-08-30T03:32:43.214Z,2.90
2022-08-30T03:37:46.562Z,2.40
2022-08-30T03:42:51.593Z,2.60
2022-08-30T03:47:54.208Z,2.70
2022-08-30T03:59:06.911Z,2.60
2022-08-30T04:04:09.538Z,3.07
2022-08-30T04:09:11.962Z,3.13
2022-08-30T04:14:14.750Z,2.90
2022-08-30T04:19:17.992Z,2.97
2022-08-30T04:24:20.366Z,3.20
2022-08-30T04:29:22.971Z,2.87
2022-08-30T04:34:26.462Z,3.83
2022-08-30T04:39:28.907Z,4.07
2022-08-30T04:44:32.259Z,4.00
2022-08-30T04:49:34.694Z,4.30
2022-08-30T04:54:37.165Z,3.67
2022-08-30T04:59:39.897Z,4.17
2022-08-30T05:05:00.675Z,3.67
2022-08-30T05:10:09.105Z,3.13
2022-08-30T05:15:13.742Z,3.33
2022-08-30T05:20:17.245Z,3.00
2022-08-30T05:25:25.146Z,3.17
2022-08-30T05:30:28.609Z,2.90
2022-08-30T05:35:31.121Z,3.13
2022-08-30T05:40:33.596Z,3.37
2022-08-30T05:45:36.139Z,2.60
2022-08-30T05:50:40.132Z,2.60
2022-08-30T05:55:42.702Z,2.40
2022-08-30T06:00:45.174Z,1.90
2022-08-30T06:05:48.259Z,2.37
2022-08-30T06:10:55.711Z,2.40
2022-08-30T06:15:58.133Z,2.10
2022-08-30T06:21:00.653Z,2.50
2022-08-30T06:26:07.405Z,1.90
2022-08-30T06:31:12.346Z,1.97
2022-08-30T06:36:20.788Z,1.60
2022-08-30T06:41:27.376Z,1.80
2022-08-30T06:46:32.705Z,1.77
2022-08-30T06:51:39.996Z,1.40
2022-08-30T06:56:57.708Z,1.40
2022-08-30T07:02:01.260Z,1.50
2022-08-30T07:07:04.402Z,1.37
2022-08-30T07:12:06.944Z,1.03
2022-08-30T07:17:32.580Z,0.73
2022-08-30T07:22:37.273Z,0.83
2022-08-30T07:27:40.123Z,0.90
2022-08-30T07:32:42.543Z,1.10
2022-08-30T07:37:44.954Z,0.80
2022-08-30T07:42:47.392Z,0.80
2022-08-30T07:47:49.841Z,1.00
2022-08-30T07:52:52.339Z,1.20
2022-08-30T07:57:55.048Z,1.50
2022-08-30T08:02:57.963Z,1.20
2022-08-30T08:08:01.298Z,1.70
2022-08-30T08:13:04.552Z,1.37
2022-08-30T08:18:07.649Z,2.50
2022-08-30T08:23:10.145Z,2.50
2022-08-30T08:28:12.588Z,0.77
2022-08-30T08:33:15.090Z,0.60
2022-08-30T08:38:17.618Z,1.53
2022-08-30T08:43:24.840Z,0.73
2022-08-30T08:48:58.526Z,1.00
2022-08-30T08:54:18.518Z,0.90
2022-08-30T08:59:21.423Z,1.10
2022-08-30T09:04:31.881Z,1.00
2022-08-30T09:09:43.541Z,5.13
2022-08-30T09:15:29.763Z,1.70
2022-08-30T09:20:50.222Z,0.50
2022-08-30T09:25:57.208Z,0.93
2022-08-30T09:31:24.572Z,0.60
2022-08-30T09:36:29.320Z,0.83
2022-08-30T09:41:35.235Z,1.90
2022-08-30T09:46:58.739Z,0.80
2022-08-30T09:52:25.228Z,0.80
2022-08-30T09:57:46.014Z,0.70
2022-08-30T10:03:40.714Z,1.23
2022-08-30T10:15:37.968Z,1.00
2022-08-30T10:20:53.051Z,1.10
2022-08-30T10:26:19.354Z,1.10
2022-08-30T10:31:35.276Z,0.53
2022-08-30T10:36:51.376Z,0.73
2022-08-30T10:42:03.136Z,0.90
2022-08-30T10:47:31.694Z,1.30
2022-08-30T10:52:45.049Z,0.67
2022-08-30T10:57:49.638Z,0.70
2022-08-30T11:03:17.046Z,0.60
2022-08-30T11:08:44.440Z,2.40
2022-08-30T11:13:48.708Z,1.20
2022-08-30T11:18:58.325Z,1.10
2022-08-30T11:24:13.583Z,1.20
2022-08-30T11:29:30.838Z,2.47
2022-08-30T11:34:49.409Z,0.93
2022-08-30T11:39:55.229Z,2.20
2022-08-30T11:45:22.330Z,2.80
2022-08-30T11:51:01.151Z,2.30
2022-08-30T11:56:22.050Z,0.90
2022-08-30T12:01:50.806Z,0.80
2022-08-30T12:07:06.900Z,0.70
2022-08-30T12:12:38.160Z,0.90
2022-08-30T12:18:05.277Z,0.60
2022-08-30T12:23:21.470Z,0.80
2022-08-30T12:28:26.392Z,0.80
2022-08-30T12:33:41.253Z,0.67
2022-08-30T12:38:45.087Z,0.83
2022-08-30T12:43:52.146Z,0.60
2022-08-30T12:48:54.807Z,0.60
2022-08-30T12:54:09.053Z,0.80
2022-08-30T12:59:38.514Z,0.50
2022-08-30T13:04:41.564Z,0.60
2022-08-30T13:09:44.131Z,0.80
2022-08-30T13:14:46.874Z,0.60
2022-08-30T13:20:06.562Z,0.50
2022-08-30T13:25:10.858Z,0.50
2022-08-30T13:30:16.278Z,0.40
2022-08-30T13:35:18.796Z,0.40
2022-08-30T13:40:23.171Z,0.50
2022-08-30T13:45:41.955Z,0.73
2022-08-30T13:50:44.939Z,0.63
2022-08-30T13:55:47.510Z,0.80
2022-08-30T14:01:00.390Z,0.50
2022-08-30T14:06:22.424Z,0.50
2022-08-30T14:11:54.362Z,0.60
2022-08-30T14:35:34.654Z,0.73
2022-08-30T14:40:37.543Z,0.70
2022-08-30T14:45:40.718Z,0.70
2022-08-30T14:50:45.087Z,0.60
2022-08-30T14:55:55.339Z,1.40
2022-08-30T15:00:57.976Z,0.60
2022-08-30T15:06:00.612Z,0.70
2022-08-30T15:11:15.359Z,0.60
2022-08-30T15:16:30.026Z,0.60
2022-08-30T15:21:39.267Z,0.77
2022-08-30T15:26:44.063Z,0.60
2022-08-30T15:31:49.813Z,0.53
2022-08-30T15:36:52.541Z,0.50
2022-08-30T15:42:00.296Z,0.50
2022-08-30T15:47:04.271Z,0.60
2022-08-30T15:52:08.391Z,0.63
2022-08-30T15:57:12.116Z,0.83
2022-08-30T16:02:14.657Z,1.00
2022-08-30T16:07:19.256Z,0.70
2022-08-30T16:12:23.301Z,1.00
2022-08-30T16:17:26.504Z,0.80
2022-08-30T16:22:28.930Z,1.00
2022-08-30T16:27:32.526Z,1.10
2022-08-30T16:32:35.056Z,0.90
2022-08-30T16:37:37.914Z,0.70
2022-08-30T16:42:40.682Z,0.70
2022-08-30T16:47:43.168Z,0.80
2022-08-30T16:52:46.432Z,0.90
2022-08-30T16:57:49.008Z,1.00
2022-08-30T17:02:54.685Z,0.80
2022-08-30T17:07:58.154Z,0.60
2022-08-30T17:13:00.678Z,0.90
2022-08-30T17:18:03.527Z,0.80
2022-08-30T17:23:08.164Z,0.80
2022-08-30T17:28:11.052Z,0.77
2022-08-30T17:33:15.129Z,1.20
2022-08-30T17:38:20.739Z,1.10
2022-08-30T17:43:23.287Z,1.23
2022-08-30T17:48:25.984Z,1.40
2022-08-30T17:53:29.022Z,1.00
2022-08-30T17:58:32.531Z,1.20
2022-08-30T18:03:35.408Z,1.10
2022-08-30T18:08:38.115Z,1.37
2022-08-30T18:13:40.615Z,1.13
2022-08-30T18:18:43.024Z,1.23
2022-08-30T18:23:46.316Z,1.27
2022-08-30T18:28:49.110Z,1.10
2022-08-30T18:33:51.757Z,1.37
2022-08-30T18:38:54.602Z,1.53
2022-08-30T18:44:11.244Z,1.23
2022-08-30T18:49:19.485Z,1.50
2022-08-30T18:54:22.303Z,1.43
2022-08-30T18:59:31.391Z,1.57
2022-08-30T19:04:39.485Z,1.30
2022-08-30T19:09:45.528Z,1.10
2022-08-30T19:14:48.258Z,1.43
2022-08-30T19:19:52.228Z,1.40
2022-08-30T19:24:55.143Z,1.30
2022-08-30T19:29:57.757Z,1.37
2022-08-30T19:35:00.190Z,1.40
2022-08-30T19:40:07.507Z,1.20
2022-08-30T19:45:12.423Z,1.03
2022-08-30T19:50:16.139Z,1.10
2022-08-30T19:55:18.830Z,1.10
2022-08-30T20:00:26.193Z,0.80
2022-08-30T20:05:29.716Z,0.90
2022-08-30T20:10:32.102Z,1.00
2022-08-30T20:15:34.687Z,1.10
2022-08-30T20:20:37.440Z,1.33
2022-08-30T20:25:40.202Z,1.00
2022-08-30T20:30:43.644Z,0.97
2022-08-30T20:35:49.333Z,0.93
2022-08-30T20:40:58.636Z,1.40
2022-08-30T20:46:10.594Z,1.17
2022-08-30T20:51:17.806Z,0.90
2022-08-30T20:56:22.216Z,1.20
2022-08-30T21:01:24.740Z,1.00
2022-08-30T21:06:27.380Z,0.87
2022-08-30T21:11:30.062Z,1.20
2022-08-30T21:16:32.498Z,1.10
2022-08-30T21:21:35.076Z,1.00
2022-08-30T21:26:39.970Z,1.00
2022-08-30T21:31:42.860Z,0.90
2022-08-30T21:36:45.947Z,1.10
2022-08-30T21:41:50.287Z,0.97
2022-08-30T21:46:53.676Z,0.90
2022-08-30T21:51:56.593Z,0.93
2022-08-30T21:57:00.970Z,1.10
2022-08-30T22:02:03.629Z,1.00
2022-08-30T22:07:08.277Z,1.13
2022-08-30T22:12:11.424Z,0.90
2022-08-30T22:17:13.835Z,0.90
2022-08-30T22:22:16.274Z,0.90
2022-08-30T22:27:18.909Z,0.90
2022-08-30T22:32:21.588Z,0.90
2022-08-30T22:37:24.492Z,1.00
2022-08-30T22:42:26.913Z,0.80
2022-08-30T22:47:31.079Z,1.03
2022-08-30T22:52:33.580Z,0.93
2022-08-30T22:57:40.137Z,0.90
2022-08-30T23:02:43.935Z,1.00
2022-08-30T23:07:46.618Z,0.83
2022-08-30T23:12:49.109Z,0.90
2022-08-30T23:17:51.607Z,0.90
2022-08-30T23:22:59.948Z,0.90
2022-08-30T23:28:21.319Z,0.80
2022-08-30T23:33:42.334Z,0.90
2022-08-30T23:39:03.144Z,0.90
2022-08-30T23:44:25.900Z,0.83
2022-08-30T23:49:46.810Z,1.00
2022-08-30T23:55:08.033Z,1.00
